Time;durP1;ratioP1;P1;durP2;ratioP2;P2;SDS_P1;SDS_P2;PMS_P1;PMS_P2;Temp;Humidity;BMP_temperature;BMP_pressure;BME280_temperature;BME280_humidity;BME280_pressure;Samples;Min_cycle;Max_cycle;Signal;HPM_P1;HPM_P2
2022/04/06 00:03:37;;;;;;;4.95;4.53;;;;;;;9.39;96.93;98664.28;8370358;28;20612;-71
2022/04/06 00:07:41;;;;;;;5.10;4.50;;;;;;;9.38;96.29;98659.97;8369558;28;20033;-72
2022/04/06 00:11:42;;;;;;;5.63;4.53;;;;;;;9.37;96.73;98655.69;8375279;28;20143;-71
2022/04/06 00:15:44;;;;;;;4.38;4.07;;;;;;;9.37;96.47;98658.25;8372012;28;20052;-72
2022/04/06 00:19:45;;;;;;;4.27;3.97;;;;;;;9.36;97.01;98643.59;8366546;28;20045;-71
2022/04/06 00:23:47;;;;;;;4.40;4.10;;;;;;;9.35;96.97;98633.25;8372723;28;20049;-71
2022/04/06 00:27:48;;;;;;;6.35;4.30;;;;;;;9.34;97.24;98639.31;8376418;28;20090;-71
2022/04/06 00:31:50;;;;;;;7.80;4.10;;;;;;;9.33;97.21;98627.19;8388059;28;20055;-72
2022/04/06 00:35:51;;;;;;;4.00;3.70;;;;;;;9.31;97.08;98627.22;8378699;28;20052;-71
2022/04/06 00:39:53;;;;;;;4.72;4.32;;;;;;;9.30;97.12;98620.31;8407019;28;20333;-71
2022/04/06 00:44:15;;;;;;;4.13;3.83;;;;;;;9.29;96.72;98618.63;8373573;28;20059;-72
2022/04/06 00:48:17;;;;;;;4.15;3.63;;;;;;;9.29;96.95;98622.94;8385291;28;20437;-71
2022/04/06 00:52:20;;;;;;;3.67;3.38;;;;;;;9.28;97.27;98618.63;8365938;28;20064;-71
2022/04/06 00:56:22;;;;;;;4.38;3.38;;;;;;;9.27;96.82;98625.56;8375606;28;20056;-71
2022/04/06 01:00:24;;;;;;;4.20;3.80;;;;;;;9.27;96.86;98606.56;8363605;28;20054;-71
2022/04/06 01:04:26;;;;;;;;;;;;;;;9.25;97.23;98605.72;8354890;28;20144;-71
2022/04/06 01:08:28;;;;;;;3.47;3.17;;;;;;;9.23;97.27;98600.56;8372684;28;20569;-71
2022/04/06 01:12:33;;;;;;;3.77;3.40;;;;;;;9.24;97.92;98597.09;8365225;28;20041;-71
2022/04/06 01:16:34;;;;;;;3.92;3.63;;;;;;;9.21;97.62;98594.56;8370879;28;20063;-71
2022/04/06 01:20:36;;;;;;;4.93;4.53;;;;;;;9.20;97.80;98592.84;8371540;28;20059;-71
2022/04/06 01:24:39;;;;;;;3.87;3.57;;;;;;;9.19;97.96;98580.78;8374588;28;20072;-71
2022/04/06 01:28:41;;;;;;;4.22;3.80;;;;;;;9.20;97.64;98581.63;8371579;28;20059;-71
2022/04/06 01:32:42;;;;;;;4.05;3.75;;;;;;;9.20;97.70;98584.22;8381137;28;20048;-71
2022/04/06 01:36:44;;;;;;;3.95;3.53;;;;;;;9.19;97.47;98583.34;8369492;28;20143;-71
2022/04/06 01:40:45;;;;;;;4.47;4.07;;;;;;;9.19;97.71;98582.50;8369076;28;20041;-71
2022/04/06 01:44:48;;;;;;;3.50;3.20;;;;;;;9.16;97.02;98577.34;8374344;28;20367;-70
2022/04/06 01:53:10;;;;;;;3.55;3.35;;;;;;;9.12;96.85;98578.25;8354922;28;20131;-71
2022/04/06 01:57:12;;;;;;;3.65;3.38;;;;;;;9.11;97.33;98573.94;8363739;28;20076;-70
2022/04/06 02:01:34;;;;;;;;;;;;;;;9.12;97.27;98573.94;8365575;28;20124;-71
2022/04/06 02:05:35;;;;;;;3.42;3.13;;;;;;;9.12;96.85;98567.88;8396598;28;19925;-71
2022/04/06 02:09:39;;;;;;;3.78;3.38;;;;;;;9.10;96.59;98557.56;8398452;28;20562;-72
2022/04/06 02:13:40;;;;;;;3.33;3.03;;;;;;;9.11;96.35;98555.81;8397260;28;20098;-72
2022/04/06 02:17:42;;;;;;;3.38;2.95;;;;;;;9.12;96.85;98554.94;8392556;28;20075;-70
2022/04/06 02:21:43;;;;;;;3.33;3.10;;;;;;;9.13;96.64;98557.50;8397600;28;20058;-72
2022/04/06 02:25:45;;;;;;;4.07;3.67;;;;;;;9.14;95.93;98554.03;8401455;28;20134;-72
2022/04/06 02:29:46;;;;;;;4.57;3.50;;;;;;;9.13;96.41;98554.91;8396675;28;20412;-72
2022/04/06 02:33:48;;;;;;;4.45;3.67;;;;;;;9.14;95.80;98545.41;8378017;28;20093;-72
2022/04/06 02:37:50;;;;;;;4.63;3.72;;;;;;;9.15;96.34;98547.13;8366615;28;20088;-72
2022/04/06 02:41:52;;;;;;;6.07;3.92;;;;;;;9.15;95.78;98547.97;8366021;28;20080;-72
2022/04/06 02:45:53;;;;;;;3.95;3.58;;;;;;;9.15;95.97;98539.34;8359364;28;20490;-72
2022/04/06 02:49:55;;;;;;;4.43;4.03;;;;;;;9.17;96.00;98545.41;8373051;28;20103;-72
2022/04/06 02:53:56;;;;;;;6.03;3.92;;;;;;;9.17;96.20;98538.50;8369878;28;20080;-72
2022/04/06 02:57:58;;;;;;;6.30;4.43;;;;;;;9.18;96.19;98534.16;8369982;28;20036;-72
2022/04/06 03:01:59;;;;;;;5.43;4.35;;;;;;;9.17;95.61;98537.63;8368281;28;20816;-72
2022/04/06 03:06:01;;;;;;;4.05;3.75;;;;;;;9.19;96.06;98530.69;8367187;28;20095;-72
2022/04/06 03:10:03;;;;;;;4.13;3.83;;;;;;;9.20;95.35;98540.19;8358367;28;20052;-70
2022/04/06 03:14:05;;;;;;;4.57;4.18;;;;;;;9.18;95.90;98529.84;8359457;28;20333;-71
2022/04/06 03:18:07;;;;;;;6.10;4.45;;;;;;;9.18;96.26;98527.25;8359810;28;20049;-72
2022/04/06 03:22:08;;;;;;;4.50;4.10;;;;;;;9.20;95.58;98519.47;8367684;28;20496;-72
2022/04/06 03:26:11;;;;;;;5.03;3.95;;;;;;;9.19;95.57;98517.75;8362102;28;20072;-73
2022/04/06 03:30:12;;;;;;;4.63;4.22;;;;;;;9.17;95.41;98516.91;8375879;28;20077;-72
2022/04/06 03:34:14;;;;;;;4.68;4.28;;;;;;;9.17;94.90;98512.59;8358877;28;20069;-72
2022/04/06 03:38:15;;;;;;;5.18;4.53;;;;;;;9.17;94.83;98514.31;8358518;28;20140;-72
2022/04/06 03:42:21;;;;;;;4.45;3.92;;;;;;;9.16;95.15;98508.28;8363242;28;20041;-72
2022/04/06 03:46:23;;;;;;;6.97;4.67;;;;;;;9.15;94.65;98506.53;8362544;28;20052;-72
2022/04/06 03:50:25;;;;;;;5.07;4.57;;;;;;;9.11;94.83;98494.53;8360246;28;20041;-72
2022/04/06 03:54:26;;;;;;;5.03;4.03;;;;;;;9.12;95.11;98500.56;8365949;28;20072;-71
2022/04/06 03:58:29;;;;;;;4.55;4.03;;;;;;;9.12;94.53;98500.56;8384081;28;20672;-72
2022/04/06 04:02:31;;;;;;;;;;;;;;;9.14;94.57;98499.66;8370352;28;20057;-72
2022/04/06 04:06:33;;;;;;;5.63;3.72;;;;;;;9.10;93.72;98495.41;8368233;28;20039;-72
2022/04/06 04:10:34;;;;;;;3.88;3.58;;;;;;;9.07;94.10;98492.84;8388041;28;20060;-72
2022/04/06 04:14:36;;;;;;;4.22;3.92;;;;;;;9.07;94.03;98491.13;8391456;28;20124;-72
2022/04/06 04:18:37;;;;;;;4.85;3.40;;;;;;;9.06;94.36;98486.81;8369277;28;20054;-72
2022/04/06 04:22:39;;;;;;;4.88;3.47;;;;;;;9.07;94.47;98491.13;8369412;28;20058;-72
2022/04/06 04:26:40;;;;;;;4.97;3.75;;;;;;;9.07;94.11;98488.53;8374623;28;20040;-72
2022/04/06 04:30:42;;;;;;;8.07;4.60;;;;;;;9.04;93.70;98486.00;8365981;28;20053;-72
2022/04/06 04:34:43;;;;;;;9.00;3.92;;;;;;;9.05;93.85;98489.44;8365404;28;20061;-72
2022/04/06 04:38:45;;;;;;;5.47;3.95;;;;;;;9.02;94.09;98485.16;8369218;28;20059;-72
2022/04/06 04:42:46;;;;;;;6.70;3.70;;;;;;;9.01;93.96;98480.84;8371093;28;20057;-72
2022/04/06 04:46:48;;;;;;;5.13;4.30;;;;;;;8.99;93.86;98487.78;8390037;28;20344;-72
2022/04/06 04:50:49;;;;;;;4.45;4.03;;;;;;;9.02;94.30;98490.34;8369111;28;20056;-72
2022/04/06 04:54:51;;;;;;;4.60;4.10;;;;;;;9.01;94.17;98477.41;8371140;28;20110;-72
2022/04/06 04:58:53;;;;;;;4.68;3.65;;;;;;;9.01;94.04;98469.66;8369402;28;20059;-73
2022/04/06 05:02:54;;;;;;;7.78;3.88;;;;;;;8.99;94.05;98474.84;8368977;28;20049;-72
2022/04/06 05:06:55;;;;;;;5.65;4.10;;;;;;;9.00;93.40;98470.53;8373478;28;20055;-72
2022/04/06 05:10:57;;;;;;;5.15;4.50;;;;;;;9.00;93.67;98463.59;8370228;28;20079;-72
2022/04/06 05:14:59;;;;;;;4.82;3.75;;;;;;;9.00;93.50;98467.94;8373773;28;20046;-72
2022/04/06 05:19:01;;;;;;;3.90;3.47;;;;;;;9.00;92.85;98468.78;8361612;28;20483;-72
2022/04/06 05:23:02;;;;;;;3.70;2.97;;;;;;;9.02;93.24;98466.19;8367748;28;20048;-72
2022/04/06 05:27:04;;;;;;;4.93;3.28;;;;;;;9.00;92.68;98471.38;8368160;28;20120;-72
2022/04/06 05:31:05;;;;;;;3.90;3.30;;;;;;;9.00;92.71;98463.59;8383983;28;20048;-72
2022/04/06 05:35:09;;;;;;;5.10;2.83;;;;;;;9.01;92.38;98467.91;8372362;28;20076;-73
2022/04/06 05:39:11;;;;;;;4.47;2.65;;;;;;;9.03;91.62;98460.97;8382631;28;20047;-72
2022/04/06 05:43:13;;;;;;;3.43;2.80;;;;;;;9.04;91.95;98469.59;8368982;28;20069;-73
2022/04/06 05:47:14;;;;;;;6.10;2.90;;;;;;;9.03;91.63;98475.66;8367200;28;20336;-72
2022/04/06 05:51:16;;;;;;;3.47;2.72;;;;;;;9.03;91.41;98471.34;8366169;28;20049;-72
2022/04/06 05:55:17;;;;;;;8.43;3.38;;;;;;;9.00;90.88;98468.78;8370427;28;20043;-72
2022/04/06 05:59:18;;;;;;;7.15;3.47;;;;;;;9.03;91.04;98473.91;8342754;28;20055;-72
2022/04/06 06:03:20;;;;;;;6.32;3.05;;;;;;;9.05;90.71;98481.66;8341959;28;20044;-72
2022/04/06 06:07:22;;;;;;;3.45;2.22;;;;;;;9.09;90.58;98478.16;8344861;28;20045;-72
2022/04/06 06:11:24;;;;;;;4.33;2.73;;;;;;;9.08;89.65;98479.88;8342996;28;20079;-72
2022/04/06 06:15:25;;;;;;;3.67;2.10;;;;;;;9.11;89.16;98480.72;8340330;28;20043;-72
2022/04/06 06:19:26;;;;;;;4.10;2.20;;;;;;;9.14;89.37;98476.34;8344213;28;20045;-72
2022/04/06 06:23:28;;;;;;;2.60;2.15;;;;;;;9.19;88.51;98477.16;8362502;28;20055;-72
2022/04/06 06:27:36;;;;;;;3.30;2.03;;;;;;;9.22;88.54;98465.91;8368301;28;20040;-72
2022/04/06 06:31:37;;;;;;;4.50;1.83;;;;;;;9.28;87.87;98473.56;8366629;28;20131;-72
2022/04/06 06:35:39;;;;;;;3.90;2.33;;;;;;;9.34;87.31;98478.69;8361590;28;20849;-71
2022/04/06 06:39:40;;;;;;;4.85;2.15;;;;;;;9.33;87.30;98477.81;8359101;28;20417;-72
2022/04/06 06:43:41;;;;;;;4.80;2.30;;;;;;;9.35;87.38;98470.03;8356251;28;20231;-71
2022/04/06 06:47:43;;;;;;;4.00;2.05;;;;;;;9.39;87.16;98469.13;8338158;28;20045;-72
2022/04/06 06:51:45;;;;;;;6.05;1.85;;;;;;;9.42;87.24;98473.38;8340990;28;20505;-73
2022/04/06 06:55:46;;;;;;;3.70;2.25;;;;;;;9.38;86.95;98467.41;8341148;28;20049;-72
2022/04/06 06:59:48;;;;;;;2.80;2.03;;;;;;;9.38;87.43;98459.63;8340678;28;20045;-72
2022/04/06 07:03:49;;;;;;;4.00;2.35;;;;;;;9.39;86.95;98464.78;8338067;28;20063;-72
2022/04/06 07:07:53;;;;;;;4.93;2.15;;;;;;;9.45;86.46;98462.97;8346880;28;20069;-72
2022/04/06 07:11:54;;;;;;;4.07;2.42;;;;;;;9.54;85.83;98461.13;8340666;28;20742;-72
2022/04/06 07:15:56;;;;;;;4.30;2.17;;;;;;;9.67;85.26;98461.75;8336446;28;20175;-72
2022/04/06 07:19:57;;;;;;;3.27;2.00;;;;;;;9.82;84.83;98452.88;8341155;28;20167;-72
2022/04/06 07:24:01;;;;;;;4.97;2.25;;;;;;;9.85;82.76;98451.09;8339398;28;20973;-72
2022/04/06 07:28:03;;;;;;;3.95;1.80;;;;;;;10.00;81.89;98461.22;8341448;28;20082;-72
2022/04/06 07:32:05;;;;;;;9.70;2.50;;;;;;;9.94;76.26;98448.38;8359492;28;20803;-73
2022/04/06 07:36:07;;;;;;;2.80;1.20;;;;;;;9.87;74.36;98457.09;8342930;28;20060;-73
2022/04/06 07:40:10;;;;;;;4.13;1.30;;;;;;;9.95;74.76;98459.59;8347297;28;20041;-71
2022/04/06 07:44:12;;;;;;;3.65;0.85;;;;;;;9.94;72.49;98453.53;8346598;28;20071;-72
2022/04/06 07:48:13;;;;;;;2.50;1.00;;;;;;;10.35;70.99;98453.72;8359606;28;20967;-72
2022/04/06 07:52:22;;;;;;;1.58;0.90;;;;;;;10.51;68.67;98455.16;8361512;28;20071;-72
2022/04/06 07:56:23;;;;;;;4.97;0.82;;;;;;;10.57;68.33;98453.28;8345158;28;20132;-72
2022/04/06 08:00:25;;;;;;;3.97;0.90;;;;;;;10.65;68.25;98450.53;8348226;28;20127;-72
2022/04/06 08:04:27;;;;;;;3.10;1.02;;;;;;;10.68;67.88;98449.63;8345665;28;20072;-72
2022/04/06 08:08:30;;;;;;;4.53;1.50;;;;;;;10.59;67.15;98463.63;8345059;28;20047;-72
2022/04/06 08:12:31;;;;;;;2.42;0.80;;;;;;;10.50;66.44;98461.22;8335912;28;20159;-71
2022/04/06 08:16:33;;;;;;;4.35;1.10;;;;;;;10.44;67.01;98461.34;8341718;28;20114;-72
2022/04/06 08:20:34;;;;;;;4.40;1.00;;;;;;;10.37;66.95;98470.97;8344407;28;20045;-72
2022/04/06 08:24:36;;;;;;;4.57;1.87;;;;;;;10.21;67.30;98472.97;8360990;28;20072;-72
2022/04/06 08:28:38;;;;;;;4.47;0.70;;;;;;;10.15;67.54;98477.41;8345198;28;20350;-72
2022/04/06 08:32:40;;;;;;;2.00;0.87;;;;;;;10.08;67.66;98471.47;8343046;28;20067;-72
2022/04/06 08:36:43;;;;;;;2.47;0.90;;;;;;;10.00;67.91;98476.78;8336663;28;20121;-72
2022/04/06 08:40:45;;;;;;;5.82;0.85;;;;;;;9.94;67.72;98473.44;8326045;28;20037;-72
2022/04/06 08:44:46;;;;;;;3.20;0.68;;;;;;;9.87;67.94;98474.41;8362132;28;20049;-73
2022/04/06 08:48:51;;;;;;;2.63;0.90;;;;;;;9.88;69.10;98464.03;8340734;28;20059;-72
2022/04/06 08:52:55;;;;;;;5.05;1.17;;;;;;;9.92;69.15;98470.88;8345023;28;20045;-72
2022/04/06 08:57:03;;;;;;;3.55;0.93;;;;;;;9.98;69.97;98469.91;8360002;28;20064;-72
2022/04/06 09:01:04;;;;;;;2.15;0.80;;;;;;;9.88;68.97;98476.13;8340950;28;20132;-72
2022/04/06 09:05:07;;;;;;;2.90;0.90;;;;;;;9.85;69.48;98468.38;8344679;28;20049;-72
2022/04/06 09:09:09;;;;;;;2.78;0.70;;;;;;;9.80;68.68;98465.03;8344013;28;20131;-72
2022/04/06 09:13:18;;;;;;;3.88;0.90;;;;;;;9.82;69.96;98463.25;8344405;28;20172;-72
2022/04/06 09:17:20;;;;;;;2.47;0.80;;;;;;;9.80;69.92;98471.06;8336034;28;20532;-72
2022/04/06 09:21:22;;;;;;;8.00;0.98;;;;;;;9.87;70.45;98464.88;8342092;28;20037;-72
2022/04/06 09:25:23;;;;;;;4.15;0.80;;;;;;;9.96;70.59;98474.25;8345473;28;20620;-72
2022/04/06 09:29:25;;;;;;;3.15;0.82;;;;;;;10.06;71.37;98478.44;8358226;28;20036;-73
2022/04/06 09:33:28;;;;;;;3.88;0.90;;;;;;;10.21;69.01;98474.72;8338165;28;20121;-72
2022/04/06 09:37:31;;;;;;;5.55;1.00;;;;;;;10.34;69.30;98471.03;8361392;28;20547;-72
2022/04/06 09:41:33;;;;;;;2.85;0.93;;;;;;;10.27;68.04;98479.81;8354820;28;20049;-72
2022/04/06 09:50:08;;;;;;;6.20;0.70;;;;;;;10.27;69.14;98478.06;8340765;28;20096;-72
2022/04/06 09:54:14;;;;;;;1.85;0.57;;;;;;;10.33;66.22;98473.66;8323321;28;20047;-72
2022/04/06 09:58:15;;;;;;;2.07;0.43;;;;;;;10.58;65.74;98460.19;8340478;28;20547;-72
2022/04/06 10:02:17;;;;;;;1.37;0.43;;;;;;;10.88;65.12;98458.72;8343345;28;20057;-72
2022/04/06 10:06:19;;;;;;;1.50;0.30;;;;;;;11.13;64.38;98456.47;8340163;28;20052;-72
2022/04/06 10:10:24;;;;;;;1.27;0.30;;;;;;;11.03;62.09;98467.09;8339311;28;20132;-73
2022/04/06 10:14:26;;;;;;;1.45;0.38;;;;;;;10.97;62.58;98459.44;8341554;28;20488;-72
2022/04/06 10:18:33;;;;;;;2.33;0.65;;;;;;;10.90;63.09;98456.94;8335902;28;20060;-72
2022/04/06 10:23:13;;;;;;;1.77;0.47;;;;;;;11.11;63.62;98445.22;8356040;28;20083;-72
2022/04/06 10:27:41;;;;;;;1.38;0.40;;;;;;;11.20;62.36;98441.59;8341372;28;20076;-72
2022/04/06 10:31:46;;;;;;;2.33;0.30;;;;;;;11.27;62.43;98437.97;8353028;28;20057;-72
2022/04/06 10:35:48;;;;;;;3.00;0.32;;;;;;;11.36;61.10;98447.31;8382464;28;20091;-72
2022/04/06 10:39:57;;;;;;;4.70;0.47;;;;;;;11.35;61.63;98440.41;8405423;28;20044;-73
2022/04/06 10:43:58;;;;;;;0.32;0.20;;;;;;;11.49;61.13;98435.75;8382051;28;20044;-72
2022/04/06 10:48:14;;;;;;;1.60;0.30;;;;;;;11.52;61.51;98425.28;8394879;28;20116;-72
2022/04/06 10:52:22;;;;;;;3.70;0.40;;;;;;;11.59;61.62;98428.56;8402818;28;20044;-72
2022/04/06 10:56:24;;;;;;;3.03;0.20;;;;;;;11.58;61.35;98435.50;8402695;28;20408;-71
2022/04/06 11:00:26;;;;;;;0.93;0.30;;;;;;;11.62;60.91;98426.75;8383146;28;20066;-72
2022/04/06 11:04:38;;;;;;;0.88;0.30;;;;;;;11.68;59.46;98433.56;8395305;28;20054;-71
2022/04/06 11:13:13;;;;;;;2.00;0.40;;;;;;;11.48;58.68;98413.22;8410495;28;20328;-71
2022/04/06 11:17:48;;;;;;;2.92;0.30;;;;;;;11.62;59.07;98413.75;8405509;28;20139;-72
2022/04/06 11:21:58;;;;;;;0.35;0.20;;;;;;;11.78;60.34;98414.22;8406653;28;20082;-72
2022/04/06 11:26:00;;;;;;;1.13;0.30;;;;;;;11.87;59.58;98415.78;8410184;28;20040;-71
2022/04/06 11:30:21;;;;;;;2.53;0.95;;;;;;;11.67;59.28;98406.69;8390683;28;20420;-71
2022/04/06 11:34:33;;;;;;;2.17;0.32;;;;;;;11.53;58.22;98419.19;8409359;28;20443;-71
2022/04/06 11:38:36;;;;;;;2.85;0.65;;;;;;;11.31;58.62;98399.75;8409290;28;20048;-71
2022/04/06 11:42:39;;;;;;;0.65;0.20;;;;;;;11.25;59.66;98405.09;8392411;28;20055;-71
2022/04/06 11:46:46;;;;;;;1.50;0.28;;;;;;;11.40;60.50;98403.00;8404732;28;20071;-71
2022/04/06 11:50:49;;;;;;;1.83;0.32;;;;;;;11.51;60.02;98405.38;8406455;28;20595;-71
2022/04/06 11:54:52;;;;;;;;;;;;;;;11.59;59.63;98389.56;8409902;28;20044;-71
2022/04/06 11:58:57;;;;;;;2.65;0.40;;;;;;;11.62;59.73;98392.09;8408762;28;21445;-71
2022/04/06 12:02:59;;;;;;;1.35;0.30;;;;;;;11.63;59.82;98386.84;8404161;28;20040;-71
2022/04/06 12:07:00;;;;;;;0.98;0.40;;;;;;;11.72;59.86;98372.78;8408675;28;20154;-71
2022/04/06 12:11:02;;;;;;;2.90;0.73;;;;;;;11.84;59.07;98375.06;8409498;28;20082;-71
2022/04/06 12:15:05;;;;;;;2.22;0.40;;;;;;;11.89;59.06;98374.97;8403991;28;20071;-71
2022/04/06 12:19:13;;;;;;;2.17;0.52;;;;;;;11.83;58.90;98365.56;8406721;28;20071;-71
2022/04/06 12:23:16;;;;;;;1.58;0.40;;;;;;;11.93;59.52;98368.78;8410250;28;20051;-71
2022/04/06 12:27:29;;;;;;;1.48;0.43;;;;;;;12.06;59.29;98355.44;8421869;27;20067;-72
2022/04/06 12:31:38;;;;;;;1.25;0.30;;;;;;;12.09;58.82;98359.69;8393220;28;20048;-72
2022/04/06 12:35:39;;;;;;;1.48;0.50;;;;;;;12.06;58.47;98351.97;8371183;28;20052;-72
2022/04/06 12:39:54;;;;;;;2.17;0.50;;;;;;;12.10;58.90;98359.66;8400347;28;20036;-72
2022/04/06 12:43:56;;;;;;;0.90;0.52;;;;;;;12.14;57.53;98350.00;8377932;28;20051;-72
2022/04/06 12:48:19;;;;;;;2.45;0.55;;;;;;;12.17;57.90;98342.09;8395634;28;20055;-72
2022/04/06 12:52:40;;;;;;;3.37;0.70;;;;;;;12.26;58.52;98346.22;8397718;28;20504;-72
2022/04/06 12:57:07;;;;;;;1.63;0.70;;;;;;;12.30;57.85;98337.41;8406809;28;20123;-72
2022/04/06 13:01:11;;;;;;;1.25;0.50;;;;;;;12.06;57.85;98332.00;8386493;28;20562;-72
2022/04/06 13:05:15;;;;;;;1.13;0.50;;;;;;;12.17;57.87;98318.69;8406634;28;20089;-72
2022/04/06 13:09:16;;;;;;;0.80;0.50;;;;;;;12.28;58.20;98307.97;8407064;28;20079;-72
2022/04/06 13:13:23;;;;;;;1.65;1.35;;;;;;;12.22;57.56;98302.97;8402973;28;20098;-72
2022/04/06 13:17:27;;;;;;;3.20;0.82;;;;;;;12.18;57.36;98307.38;8392883;28;20046;-72
2022/04/06 13:21:33;;;;;;;2.83;0.70;;;;;;;12.09;57.46;98305.06;8391168;28;20155;-72
2022/04/06 13:25:34;;;;;;;1.83;0.50;;;;;;;12.13;57.79;98293.66;8372229;28;20130;-71
2022/04/06 13:29:36;;;;;;;5.05;0.80;;;;;;;12.20;57.78;98286.50;8393892;28;20083;-72
2022/04/06 13:33:38;;;;;;;1.70;0.57;;;;;;;12.26;58.42;98289.81;8386448;28;20135;-72
2022/04/06 13:37:41;;;;;;;1.90;0.60;;;;;;;12.30;58.00;98269.75;8390853;28;20044;-72
2022/04/06 13:41:43;;;;;;;2.58;0.63;;;;;;;12.46;57.73;98260.59;8377996;28;20419;-72
2022/04/06 13:45:44;;;;;;;1.75;0.70;;;;;;;12.54;58.29;98247.31;8389981;28;20063;-71
2022/04/06 13:49:46;;;;;;;1.80;0.60;;;;;;;12.49;56.98;98244.88;8394358;28;20048;-71
2022/04/06 13:53:47;;;;;;;3.15;0.70;;;;;;;12.40;57.23;98239.97;8395570;28;20054;-70
2022/04/06 13:57:49;;;;;;;1.85;0.70;;;;;;;12.51;57.61;98230.03;8402036;28;20045;-71
2022/04/06 14:01:51;;;;;;;0.80;0.67;;;;;;;12.54;58.09;98237.75;8400197;28;20084;-71
2022/04/06 14:05:55;;;;;;;1.23;0.90;;;;;;;12.70;58.50;98217.28;8401826;28;20140;-71
2022/04/06 14:09:57;;;;;;;1.40;0.55;;;;;;;12.80;57.78;98212.66;8403335;28;20067;-71
2022/04/06 14:13:58;;;;;;;2.07;0.60;;;;;;;12.82;57.95;98210.84;8404138;28;20058;-71
2022/04/06 14:18:00;;;;;;;1.03;0.60;;;;;;;12.89;57.52;98191.50;8400390;28;20147;-71
2022/04/06 14:22:01;;;;;;;1.38;0.65;;;;;;;13.12;56.94;98193.38;8402576;28;20523;-71
2022/04/06 14:26:03;;;;;;;0.93;0.70;;;;;;;13.22;56.71;98179.13;8406011;28;20750;-71
2022/04/06 14:30:06;;;;;;;3.40;0.93;;;;;;;13.28;55.68;98184.13;8395543;28;21108;-71
2022/04/06 14:34:09;;;;;;;2.83;1.25;;;;;;;13.27;55.77;98167.63;8403289;28;20072;-71
2022/04/06 14:38:16;;;;;;;1.25;0.65;;;;;;;13.23;55.94;98160.84;8384936;28;20040;-71
2022/04/06 14:42:18;;;;;;;4.47;0.70;;;;;;;13.03;55.22;98163.25;8400894;28;20071;-71
2022/04/06 14:46:21;;;;;;;3.50;1.30;;;;;;;13.14;56.35;98163.75;8399140;28;20065;-71
2022/04/06 14:50:23;;;;;;;1.75;0.70;;;;;;;13.17;56.41;98155.81;8405215;28;20485;-72
2022/04/06 14:54:25;;;;;;;2.08;0.90;;;;;;;13.12;55.67;98149.06;8404085;28;20058;-72
2022/04/06 14:58:26;;;;;;;0.90;0.60;;;;;;;13.01;56.45;98145.06;8402746;28;20372;-71
2022/04/06 15:02:28;;;;;;;1.58;0.70;;;;;;;12.93;57.33;98139.28;8398462;28;20485;-71
2022/04/06 15:06:34;;;;;;;4.35;0.65;;;;;;;12.70;56.90;98132.19;8407120;28;20043;-71
2022/04/06 15:10:37;;;;;;;1.42;0.73;;;;;;;12.61;58.94;98135.13;8432223;28;20377;-71
2022/04/06 15:14:39;;;;;;;1.95;0.50;;;;;;;12.53;57.81;98133.66;8414797;28;20052;-72
2022/04/06 15:18:40;;;;;;;1.45;0.60;;;;;;;12.32;58.38;98119.59;8436192;28;20046;-71
2022/04/06 15:22:42;;;;;;;0.77;0.60;;;;;;;12.21;58.75;98114.75;8427024;28;20047;-72
2022/04/06 15:26:43;;;;;;;2.00;0.93;;;;;;;12.17;59.62;98105.31;8442770;28;20534;-71
2022/04/06 15:30:45;;;;;;;1.80;1.05;;;;;;;12.14;60.23;98108.00;8422010;28;20060;-72
2022/04/06 15:39:08;;;;;;;1.88;0.75;;;;;;;12.03;60.75;98110.97;8436167;28;20054;-71
2022/04/06 15:43:09;;;;;;;2.45;0.60;;;;;;;11.96;60.82;98105.97;8433460;28;20449;-72
2022/04/06 15:47:11;;;;;;;1.98;0.45;;;;;;;11.94;62.24;98103.41;8400242;28;20056;-71
2022/04/06 15:51:13;;;;;;;0.88;0.60;;;;;;;11.95;62.22;98106.88;8436394;28;20143;-71
2022/04/06 15:55:17;;;;;;;2.03;0.70;;;;;;;11.99;62.13;98088.50;8431327;28;20071;-71
2022/04/06 15:59:18;;;;;;;1.25;0.65;;;;;;;11.96;62.78;98085.16;8449236;28;20126;-71
2022/04/06 16:03:20;;;;;;;1.00;0.50;;;;;;;11.95;62.87;98084.31;8443986;28;20052;-71
2022/04/06 16:07:22;;;;;;;4.80;0.70;;;;;;;11.89;62.67;98084.50;8433302;28;20040;-71
2022/04/06 16:11:23;;;;;;;2.85;0.75;;;;;;;11.91;63.69;98084.47;8448076;28;20043;-71
2022/04/06 16:15:24;;;;;;;3.00;0.60;;;;;;;11.88;63.43;98077.59;8427690;28;20070;-71
2022/04/06 16:19:30;;;;;;;3.23;0.63;;;;;;;11.89;63.83;98070.66;8446604;28;20043;-71
2022/04/06 16:23:31;;;;;;;0.60;0.50;;;;;;;11.87;63.80;98070.72;8431080;28;20063;-72
2022/04/06 16:27:33;;;;;;;1.92;0.68;;;;;;;11.92;64.71;98063.59;8440894;28;20522;-71
2022/04/06 16:31:34;;;;;;;1.67;0.60;;;;;;;11.94;65.09;98067.00;8410066;28;20047;-71
2022/04/06 16:35:37;;;;;;;1.08;0.63;;;;;;;11.88;65.78;98054.19;8438113;28;20501;-71
2022/04/06 16:39:38;;;;;;;3.17;0.77;;;;;;;11.83;66.76;98053.47;8436705;28;20086;-72
2022/04/06 16:43:40;;;;;;;1.75;0.85;;;;;;;11.72;67.48;98038.19;8400844;28;20045;-71
2022/04/06 16:47:42;;;;;;;4.32;1.10;;;;;;;11.59;67.84;98038.59;8420554;28;20051;-71
2022/04/06 16:56:04;;;;;;;2.10;0.80;;;;;;;11.49;70.45;98033.69;8429143;28;20090;-71
2022/04/06 17:00:10;;;;;;;1.08;0.90;;;;;;;11.39;70.47;98027.03;8427872;28;20046;-72
2022/04/06 17:04:12;;;;;;;2.08;1.00;;;;;;;11.38;72.24;98027.09;8409133;28;20079;-72
2022/04/06 17:08:14;;;;;;;2.33;1.00;;;;;;;11.30;72.89;98027.31;8412859;28;20044;-71
2022/04/06 17:12:17;;;;;;;3.83;0.80;;;;;;;11.26;73.01;98023.09;8411484;28;20355;-72
2022/04/06 17:16:19;;;;;;;;;;;;;;;11.21;72.93;98014.59;8425654;28;20082;-71
2022/04/06 17:20:20;;;;;;;4.07;0.88;;;;;;;11.21;73.19;98014.59;8432129;28;20015;-69
2022/04/06 17:24:22;;;;;;;2.80;1.05;;;;;;;11.12;73.79;98001.84;8425798;28;20391;-71
2022/04/06 17:28:24;;;;;;;3.53;0.90;;;;;;;11.06;73.47;98002.88;8439877;28;20074;-71
2022/04/06 17:32:25;;;;;;;3.83;0.90;;;;;;;11.01;73.85;97997.00;8438274;28;20082;-70
2022/04/06 17:36:27;;;;;;;2.87;0.90;;;;;;;10.95;74.21;97994.56;8444457;28;20056;-72
2022/04/06 17:40:30;;;;;;;2.23;0.80;;;;;;;10.93;74.28;97990.28;8406045;28;20130;-71
2022/04/06 17:44:32;;;;;;;2.22;0.88;;;;;;;10.88;74.20;97987.84;8420335;28;20308;-72
2022/04/06 17:48:34;;;;;;;3.40;0.97;;;;;;;10.86;74.53;97974.03;8386554;28;20056;-71
2022/04/06 17:52:41;;;;;;;4.15;0.70;;;;;;;10.84;74.67;97968.91;8398923;28;20043;-72
2022/04/06 17:56:42;;;;;;;3.70;0.60;;;;;;;10.85;74.62;97975.78;8407902;28;20071;-71
2022/04/06 18:00:44;;;;;;;3.13;1.02;;;;;;;10.86;74.90;97969.69;8400275;28;20036;-71
2022/04/06 18:04:46;;;;;;;1.25;0.63;;;;;;;10.86;74.50;97961.06;8408234;28;20040;-71
2022/04/06 18:08:50;;;;;;;0.93;0.68;;;;;;;10.85;74.85;97955.03;8409155;28;20059;-71
2022/04/06 18:17:12;;;;;;;0.60;0.60;;;;;;;10.83;74.93;97941.22;8404433;28;20452;-70
2022/04/06 18:21:14;;;;;;;2.30;0.95;;;;;;;10.84;75.12;97944.69;8410796;28;20048;-71
2022/04/06 18:25:16;;;;;;;3.40;0.90;;;;;;;10.84;75.44;97936.88;8410763;28;20044;-71
2022/04/06 18:29:19;;;;;;;3.78;0.77;;;;;;;10.83;75.21;97942.97;8409040;28;20048;-71
2022/04/06 18:33:21;;;;;;;1.42;0.65;;;;;;;10.83;75.37;97933.44;8420760;27;20048;-72
2022/04/06 18:37:23;;;;;;;1.37;0.90;;;;;;;10.86;76.14;97935.94;8391139;28;20058;-72
2022/04/06 18:41:26;;;;;;;;;;;;;;;10.88;76.20;97936.75;8426496;28;20529;-71
2022/04/06 18:45:27;;;;;;;2.47;0.70;;;;;;;10.88;76.50;97934.16;8421638;27;20472;-72
2022/04/06 18:49:30;;;;;;;2.97;0.60;;;;;;;10.89;76.66;97938.44;8408616;28;20052;-71
2022/04/06 18:53:32;;;;;;;3.17;0.70;;;;;;;10.90;77.01;97934.94;8411686;28;20146;-72
2022/04/06 18:57:34;;;;;;;1.37;0.63;;;;;;;10.90;77.21;97939.28;8381546;28;20036;-72
2022/04/06 19:01:37;;;;;;;1.85;0.85;;;;;;;10.88;77.90;97923.75;8409307;28;21537;-72
2022/04/06 19:05:39;;;;;;;3.17;1.00;;;;;;;10.90;77.63;97932.34;8421618;28;20858;-72
2022/04/06 19:09:41;;;;;;;2.97;0.90;;;;;;;10.88;78.23;97926.34;8387502;28;20040;-72
2022/04/06 19:13:42;;;;;;;2.10;0.80;;;;;;;10.87;79.11;97929.84;8411266;28;20044;-72
2022/04/06 19:17:44;;;;;;;0.90;0.70;;;;;;;10.90;78.98;97928.91;8390479;28;20048;-71
2022/04/06 19:21:46;;;;;;;3.20;0.77;;;;;;;10.87;79.20;97929.84;8410090;28;20044;-71
2022/04/06 19:25:48;;;;;;;1.17;0.75;;;;;;;10.83;80.15;97925.66;8398536;28;20804;-70
2022/04/06 19:29:50;;;;;;;2.65;0.90;;;;;;;10.76;81.09;97925.84;8418751;28;20044;-71
2022/04/06 19:33:52;;;;;;;1.10;0.65;;;;;;;10.68;81.91;97941.66;8402418;28;20075;-70
2022/04/06 19:37:53;;;;;;;2.28;0.90;;;;;;;10.70;82.29;97941.63;8391201;28;20075;-72
2022/04/06 19:41:54;;;;;;;1.77;0.90;;;;;;;10.66;84.10;97945.19;8400400;28;20146;-73